Meteo Giornale » Osservazioni meteo Stati Uniti (USA) » Sexton Summit
ore: 13:56 - Osservazioni Meteo Sexton Summit
Lat. 42° 36' N Lon. 123° 21' W Alt. 0 metri s.l.m.
25 °C
Sereno
Temp. 24 Ore
14 °C
25 °C
Nord
0 Km/h
Dew point 4 °C
Umidità 25 %
Visibilità 10 Km
Il sole sorge alle ore 06:37
Il sole tramonta alle ore 19:49
| Data e Ora | Cielo e Fenomeni | T °C | DP °C | Um. % | Pres. hPa | Vis. km | Vento km/h | |
|---|---|---|---|---|---|---|---|---|
| Oggi h: 13:56 | Sereno | 25 | 4 | 25 | 1013 | 10 | N 0 | |
| Oggi h: 12:56 | Sereno | 25 | 5 | 27 | 1013 | 10 | N 7.4 | |
| Oggi h: 11:56 | Sereno | 22 | 6 | 35 | 1014 | 10 | N 0 | |
| Oggi h: 10:56 | Sereno | 21 | 4 | 32 | 1014 | 10 | N 5.5 | |
| Oggi h: 09:56 | Sereno | 20 | 4 | 34 | 1013 | 10 | SE 11.1 | |
| Oggi h: 08:56 | Sereno | 18 | 4 | 39 | 1013 | 10 | E/SE 9.3 | |
| Oggi h: 07:56 | Sereno | 16 | 4 | 44 | 1013 | 10 | E/SE 11.1 | |
| Oggi h: 06:56 | Sereno | 15 | 3 | 44 | 1013 | 10 | E/SE 11.1 | |
| Oggi h: 05:56 | Sereno | 15 | 3 | 44 | 1013 | 10 | E/SE 7.4 | |
| Oggi h: 04:56 | Sereno | 16 | 3 | 41 | 1014 | 10 | E/SE 11.1 | |
| Oggi h: 03:56 | Sereno | 16 | 3 | 41 | 1014 | 10 | E/SE 11.1 | |
| Oggi h: 02:56 | Sereno | 16 | 3 | 41 | 1014 | 10 | SE 11.1 | |
| Oggi h: 01:56 | Sereno | 17 | 2 | 36 | 1015 | 10 | SE 7.4 | |
| Oggi h: 00:56 | Sereno | 17 | 2 | 36 | 1015 | 10 | SE 7.4 | |
| Ieri h: 23:56 | Sereno | 18 | 1 | 31 | 1015 | 10 | N 0 | |
| Ieri h: 22:56 | Sereno | 16 | 2 | 38 | 1016 | 10 | N 7.4 | |
| Ieri h: 21:56 | Sereno | 14 | 2 | 44 | 1016 | 10 | N/NO 11.1 | |
| Ieri h: 20:56 | Sereno | 15 | 2 | 41 | 1016 | 10 | N/NO 11.1 | |
| Ieri h: 19:56 | Sereno | 16 | 3 | 41 | 1016 | 10 | N 9.3 | |
| Ieri h: 18:56 | Sereno | 18 | 4 | 39 | 1016 | 10 | N 7.4 | |
| Ieri h: 17:56 | Sereno | 19 | 5 | 39 | 1016 | 10 | N 0 | |
| Ieri h: 16:56 | Sereno | 21 | 6 | 37 | 1017 | 10 | N 0 | |
| Ieri h: 15:56 | Sereno | 21 | 6 | 37 | 1017 | 10 | N 0 | |
| Ieri h: 14:56 | Sereno | 21 | 6 | 37 | 1018 | 10 | N 0 | |



